Time;durP1;ratioP1;P1;durP2;ratioP2;P2;SDS_P1;SDS_P2;PMS_P1;PMS_P2;Temp;Humidity;BMP_temperature;BMP_pressure;BME280_temperature;BME280_humidity;BME280_pressure;Samples;Min_cycle;Max_cycle;Signal;HPM_P1;HPM_P2
2023/02/25 00:02:19;;;;;;;0.00;0.00;;;;;;;7.90;59.72;101400.91;7357587;19;20007;-53
2023/02/25 00:04:44;;;;;;;0.00;0.00;;;;;;;7.78;59.69;101385.34;7358278;19;20055;-55
2023/02/25 00:07:09;;;;;;;0.00;0.00;;;;;;;7.89;60.04;101412.19;7353853;19;20522;-56
2023/02/25 00:09:35;;;;;;;0.00;0.00;;;;;;;7.85;60.15;101407.00;7357365;19;20014;-55
2023/02/25 00:12:00;;;;;;;0.00;0.00;;;;;;;7.53;59.99;101356.72;7356269;19;20025;-55
2023/02/25 00:14:27;;;;;;;0.00;0.00;;;;;;;7.87;60.06;101408.75;7354420;19;20569;-55
2023/02/25 00:16:56;;;;;;;0.08;0.08;;;;;;;7.83;59.90;101412.19;7326793;19;20096;-55
2023/02/25 00:19:23;;;;;;;0.08;0.08;;;;;;;7.86;60.07;101412.22;7353449;19;20014;-55
2023/02/25 00:21:48;;;;;;;0.00;0.00;;;;;;;7.86;60.12;101417.41;7360662;19;20010;-55
2023/02/25 00:24:14;;;;;;;0.00;0.00;;;;;;;7.82;60.57;101405.28;7359760;19;20011;-56
2023/02/25 00:26:40;;;;;;;0.10;0.10;;;;;;;7.79;60.32;101400.06;7359553;19;20041;-55
2023/02/25 00:29:05;;;;;;;0.00;0.00;;;;;;;7.65;60.58;101378.38;7356771;19;20022;-55
2023/02/25 00:31:31;;;;;;;0.03;0.03;;;;;;;7.80;60.50;101394.84;7360000;19;20015;-56
2023/02/25 00:33:57;;;;;;;0.00;0.00;;;;;;;7.79;60.43;101398.31;7358320;19;20742;-55
2023/02/25 00:36:25;;;;;;;0.08;0.08;;;;;;;7.73;60.35;101394.88;7358957;19;20011;-56
2023/02/25 00:38:53;;;;;;;0.00;0.00;;;;;;;7.72;60.19;101382.75;7357165;19;20013;-52
2023/02/25 00:41:22;;;;;;;0.00;0.00;;;;;;;7.74;60.49;101400.06;7358069;19;20503;-55
2023/02/25 00:43:53;;;;;;;0.00;0.00;;;;;;;7.68;60.40;101400.06;7350927;19;20351;-53
2023/02/25 00:46:20;;;;;;;0.00;0.00;;;;;;;7.72;60.36;101408.75;7355225;19;20007;-55
2023/02/25 00:48:45;;;;;;;0.00;0.00;;;;;;;7.63;60.50;101398.31;7352185;19;20030;-55
2023/02/25 00:51:14;;;;;;;0.00;0.00;;;;;;;7.71;60.71;101417.41;7355079;19;20016;-54
2023/02/25 00:53:40;;;;;;;0.00;0.00;;;;;;;7.61;60.15;101400.94;7350956;19;20010;-55
2023/02/25 00:56:07;;;;;;;0.03;0.03;;;;;;;7.71;60.73;101417.41;7353047;19;20608;-57
2023/02/25 00:58:37;;;;;;;0.10;0.10;;;;;;;7.71;60.69;101410.47;7354265;19;20006;-56
2023/02/25 01:01:36;;;;;;;0.00;0.00;;;;;;;7.68;60.36;101401.81;7356205;19;20035;-55
2023/02/25 01:04:02;;;;;;;0.00;0.00;;;;;;;7.72;60.27;101411.34;7257806;19;2004368;-54
2023/02/25 01:06:29;;;;;;;0.00;0.00;;;;;;;7.73;60.77;101405.25;7359002;19;20018;-55
2023/02/25 01:08:55;;;;;;;0.00;0.00;;;;;;;7.59;60.74;101386.19;7356471;19;20108;-55
2023/02/25 01:11:29;;;;;;;0.00;0.00;;;;;;;7.74;60.41;101396.59;7356550;19;20487;-56
2023/02/25 01:14:03;;;;;;;0.00;0.00;;;;;;;7.75;60.59;101403.53;7358470;19;20002;-54
2023/02/25 01:16:30;;;;;;;0.00;0.00;;;;;;;7.73;60.80;101398.31;7357913;19;20028;-55
2023/02/25 01:18:58;;;;;;;0.00;0.00;;;;;;;7.74;60.43;101401.78;7358151;19;20018;-56
2023/02/25 01:21:28;;;;;;;0.00;0.00;;;;;;;7.75;60.36;101398.31;7357535;19;20050;-55
2023/02/25 01:23:57;;;;;;;0.00;0.00;;;;;;;7.72;60.71;101404.41;7359435;19;20042;-55
2023/02/25 01:26:23;;;;;;;0.00;0.00;;;;;;;7.71;60.70;101401.81;7358483;19;20514;-55
2023/02/25 01:28:49;;;;;;;0.00;0.00;;;;;;;7.58;60.76;101379.25;7357004;19;20416;-56
2023/02/25 01:31:17;;;;;;;0.00;0.00;;;;;;;7.69;60.71;101394.00;7358499;19;20014;-55
2023/02/25 01:33:43;;;;;;;0.05;0.05;;;;;;;7.62;60.90;101386.22;7359800;19;20016;-56
2023/02/25 01:36:08;;;;;;;0.00;0.00;;;;;;;7.52;60.71;101378.41;7353852;19;20422;-55
2023/02/25 01:38:34;;;;;;;0.00;0.00;;;;;;;7.64;60.93;101395.72;7357497;19;20022;-55
2023/02/25 01:41:00;;;;;;;0.00;0.00;;;;;;;7.66;60.89;101399.22;7358276;19;20018;-55
2023/02/25 01:43:27;;;;;;;0.00;0.00;;;;;;;7.65;60.68;101396.59;7357552;19;20343;-54
2023/02/25 01:45:56;;;;;;;0.00;0.00;;;;;;;7.64;60.58;101402.66;7356088;19;20517;-54
2023/02/25 01:48:23;;;;;;;0.00;0.00;;;;;;;7.64;61.08;101400.06;7356651;19;20025;-55
2023/02/25 01:51:11;;;;;;;0.00;0.00;;;;;;;7.64;60.27;101400.06;7354038;19;20017;-57
2023/02/25 01:53:45;;;;;;;0.00;0.00;;;;;;;7.61;60.40;101405.28;7357214;19;20006;-56
2023/02/25 01:56:15;;;;;;;0.10;0.10;;;;;;;7.47;61.16;101385.31;7359834;19;20021;-55
2023/02/25 01:58:41;;;;;;;0.00;0.00;;;;;;;7.43;60.52;101383.59;7357628;19;20010;-54
2023/02/25 02:01:11;;;;;;;0.00;0.00;;;;;;;7.49;60.62;101396.56;7357937;19;20049;-54
2023/02/25 02:03:38;;;;;;;0.00;0.00;;;;;;;7.47;60.60;101405.25;7356130;19;20016;-54
2023/02/25 02:06:16;;;;;;;0.00;0.00;;;;;;;6.99;60.61;101327.25;7358876;19;20026;-55
2023/02/25 02:08:43;;;;;;;0.00;0.00;;;;;;;7.38;61.30;101398.28;7358795;19;20010;-55
2023/02/25 02:11:09;;;;;;;0.00;0.00;;;;;;;7.34;61.11;101395.69;7355905;19;20018;-55
2023/02/25 02:13:37;;;;;;;0.00;0.00;;;;;;;7.29;61.14;101393.94;7357389;19;20010;-54
2023/02/25 02:16:53;;;;;;;0.00;0.00;;;;;;;7.37;60.62;101412.16;7358453;19;20042;-56
2023/02/25 02:19:37;;;;;;;0.00;0.00;;;;;;;7.11;60.34;101369.69;7252150;19;2004264;-54
2023/02/25 02:22:38;;;;;;;0.00;0.00;;;;;;;7.38;60.58;101419.09;7351559;19;20035;-54
2023/02/25 02:25:36;;;;;;;0.00;0.00;;;;;;;7.39;60.68;101413.00;7252372;19;2004488;-55
2023/02/25 02:28:07;;;;;;;0.00;0.00;;;;;;;7.38;61.50;101424.28;7257263;19;2004540;-55
2023/02/25 02:30:43;;;;;;;0.00;0.00;;;;;;;7.00;61.19;101352.34;7356063;19;20345;-55
2023/02/25 02:33:25;;;;;;;0.00;0.00;;;;;;;7.32;60.83;101405.22;7351654;19;20906;-55
2023/02/25 02:36:19;;;;;;;0.00;0.00;;;;;;;7.41;60.87;101421.69;7355663;19;20355;-55
2023/02/25 02:39:07;;;;;;;0.10;0.10;;;;;;;7.41;60.33;101426.91;7255320;19;2004490;-55
2023/02/25 02:41:40;;;;;;;0.00;0.00;;;;;;;7.39;61.33;101433.81;7250816;19;2004394;-55
2023/02/25 02:44:33;;;;;;;0.00;0.00;;;;;;;7.14;60.70;101393.03;7352236;19;20086;-55
2023/02/25 02:47:27;;;;;;;0.00;0.00;;;;;;;7.36;60.67;101436.41;7251921;19;2004420;-55
2023/02/25 02:50:08;;;;;;;0.00;0.00;;;;;;;7.36;60.56;101439.00;7256259;19;2004565;-55
2023/02/25 02:52:39;;;;;;;0.00;0.00;;;;;;;7.28;61.69;101427.72;7356545;19;20045;-55
2023/02/25 02:55:12;;;;;;;0.00;0.00;;;;;;;7.30;61.64;101441.59;7362478;19;20014;-54
2023/02/25 02:57:41;;;;;;;0.00;0.00;;;;;;;7.23;61.52;101429.44;7355427;19;20518;-55
2023/02/25 03:00:17;;;;;;;0.00;0.00;;;;;;;7.34;61.20;101448.50;7352653;19;20093;-55
2023/02/25 03:03:06;;;;;;;0.00;0.00;;;;;;;7.30;61.86;101441.59;7358922;19;20019;-55
2023/02/25 03:05:33;;;;;;;0.00;0.00;;;;;;;7.34;61.99;101448.50;7358869;19;20010;-55
2023/02/25 03:08:29;;;;;;;0.00;0.00;;;;;;;7.38;61.23;101439.00;7361980;19;20015;-54
2023/02/25 03:10:55;;;;;;;0.00;0.00;;;;;;;7.37;61.90;101458.94;7255936;19;2004415;-55
2023/02/25 03:13:21;;;;;;;0.00;0.00;;;;;;;7.39;61.98;101452.00;7356809;19;20027;-55
2023/02/25 03:15:48;;;;;;;0.00;0.00;;;;;;;7.40;61.42;101453.75;7355587;19;20015;-55
2023/02/25 03:18:29;;;;;;;;;;;;;;;7.43;60.28;101464.13;7361647;19;20014;-55
2023/02/25 03:20:56;;;;;;;0.10;0.10;;;;;;;7.40;61.10;101453.75;7359121;19;19967;-53
2023/02/25 03:23:28;;;;;;;0.00;0.00;;;;;;;7.40;61.06;101461.53;7357234;19;20033;-55
2023/02/25 03:26:21;;;;;;;0.05;0.05;;;;;;;7.31;60.62;101448.53;7356046;19;20014;-56
2023/02/25 03:28:47;;;;;;;0.00;0.00;;;;;;;7.25;61.41;101443.31;7253247;19;2004500;-54
2023/02/25 03:31:39;;;;;;;0.00;0.00;;;;;;;7.39;61.28;101457.19;7360606;19;20026;-53
2023/02/25 03:34:15;;;;;;;0.00;0.00;;;;;;;7.38;61.76;101455.47;7256005;19;2004483;-55
2023/02/25 03:36:49;;;;;;;0.00;0.00;;;;;;;7.34;61.80;101456.31;7360558;19;20037;-53
2023/02/25 03:39:20;;;;;;;0.00;0.00;;;;;;;7.38;61.85;101460.66;7354947;19;20027;-55
2023/02/25 03:41:49;;;;;;;0.00;0.00;;;;;;;7.37;62.06;101464.13;7353921;19;20022;-56
2023/02/25 03:44:21;;;;;;;0.00;0.00;;;;;;;7.39;61.73;101466.72;7360023;19;20014;-56
2023/02/25 03:46:47;;;;;;;0.00;0.00;;;;;;;7.17;62.20;101432.03;7358739;19;20014;-54
2023/02/25 03:49:20;;;;;;;0.00;0.00;;;;;;;7.29;61.67;101456.28;7360796;19;20602;-55
2023/02/25 03:51:47;;;;;;;0.10;0.10;;;;;;;7.32;61.99;101463.25;7358733;19;20372;-55
2023/02/25 03:54:15;;;;;;;0.00;0.00;;;;;;;7.27;61.79;101457.16;7360415;19;20018;-53
2023/02/25 03:56:47;;;;;;;0.00;0.00;;;;;;;7.41;62.17;101476.28;7360495;19;20887;-55
2023/02/25 03:59:14;;;;;;;0.00;0.00;;;;;;;7.41;62.17;101491.84;7359704;19;20015;-56
2023/02/25 04:01:42;;;;;;;0.00;0.00;;;;;;;7.43;62.13;101478.84;7355751;19;20025;-55
2023/02/25 04:04:08;;;;;;;0.00;0.00;;;;;;;7.41;62.09;101475.41;7357838;19;20574;-56
2023/02/25 04:06:33;;;;;;;0.00;0.00;;;;;;;7.42;62.35;101472.78;7340622;19;20011;-55
2023/02/25 04:08:59;;;;;;;0.00;0.00;;;;;;;7.41;62.31;101470.22;7360328;19;20032;-56
2023/02/25 04:11:24;;;;;;;0.00;0.00;;;;;;;7.42;62.13;101479.72;7361115;19;20015;-55
2023/02/25 04:13:50;;;;;;;0.00;0.00;;;;;;;7.43;62.13;101490.13;7355716;19;20010;-55
2023/02/25 04:16:15;;;;;;;0.00;0.00;;;;;;;7.34;62.41;101474.50;7358389;19;20035;-55
2023/02/25 04:18:41;;;;;;;0.00;0.00;;;;;;;7.42;61.78;101483.19;7359892;19;20015;-55
2023/02/25 04:21:06;;;;;;;0.00;0.00;;;;;;;7.38;61.76;101481.44;7339648;19;20035;-53
2023/02/25 04:23:33;;;;;;;0.00;0.00;;;;;;;7.36;62.27;101474.53;7361539;19;20015;-55
2023/02/25 04:26:00;;;;;;;0.00;0.00;;;;;;;7.26;62.40;101460.63;7358376;19;20014;-55
2023/02/25 04:28:25;;;;;;;0.10;0.10;;;;;;;7.29;62.07;101476.22;7359618;19;20015;-55
2023/02/25 04:30:50;;;;;;;0.00;0.00;;;;;;;7.28;62.53;101474.47;7356435;19;20049;-54
2023/02/25 04:33:16;;;;;;;0.00;0.00;;;;;;;7.29;62.38;101489.19;7357629;19;20360;-55
2023/02/25 04:35:41;;;;;;;0.00;0.00;;;;;;;7.21;62.47;101472.75;7359372;19;20503;-55
2023/02/25 04:38:07;;;;;;;0.00;0.00;;;;;;;7.20;62.56;101476.22;7359679;19;20014;-55
2023/02/25 04:40:33;;;;;;;0.10;0.10;;;;;;;7.20;62.46;101495.25;7359239;19;20014;-55
2023/02/25 04:42:58;;;;;;;0.10;0.10;;;;;;;7.17;62.87;101482.25;7360188;19;20009;-55
2023/02/25 04:45:24;;;;;;;0.00;0.00;;;;;;;6.78;62.49;101425.81;7356983;19;20584;-55
2023/02/25 04:47:59;;;;;;;0.00;0.00;;;;;;;7.17;62.89;101502.16;7360457;19;20013;-54
2023/02/25 04:50:25;;;;;;;0.00;0.00;;;;;;;7.09;62.81;101483.06;7359457;19;20010;-56
2023/02/25 04:52:51;;;;;;;0.00;0.00;;;;;;;7.19;62.82;101505.63;7344785;19;20035;-55
2023/02/25 04:55:17;;;;;;;0.00;0.00;;;;;;;7.07;62.86;101485.66;7358726;19;20010;-55
2023/02/25 04:57:42;;;;;;;0.00;0.00;;;;;;;7.20;62.72;101507.38;7359760;19;20042;-54
2023/02/25 05:00:28;;;;;;;0.03;0.03;;;;;;;7.27;62.48;101509.13;7358704;19;20018;-53
2023/02/25 05:02:55;;;;;;;0.00;0.00;;;;;;;7.15;62.67;101499.56;7358823;19;20042;-56
2023/02/25 05:05:20;;;;;;;0.00;0.00;;;;;;;7.27;62.84;101522.97;7357074;19;20019;-56
2023/02/25 05:07:46;;;;;;;0.10;0.10;;;;;;;6.98;62.81;101470.03;7358250;19;20719;-55
2023/02/25 05:10:13;;;;;;;0.00;0.00;;;;;;;7.32;62.59;101528.19;7359930;19;20026;-57
2023/02/25 05:12:38;;;;;;;0.00;0.00;;;;;;;6.98;62.88;101476.09;7349824;19;20074;-54
2023/02/25 05:15:07;;;;;;;0.00;0.00;;;;;;;7.36;62.88;101540.34;7357748;19;20074;-56
2023/02/25 05:17:33;;;;;;;0.00;0.00;;;;;;;7.37;63.19;101542.06;7356781;19;20006;-54
2023/02/25 05:19:58;;;;;;;0.00;0.00;;;;;;;7.41;62.79;101537.75;7358431;19;20021;-56
2023/02/25 05:22:25;;;;;;;0.10;0.10;;;;;;;7.36;63.00;101522.16;7354051;19;20003;-55
2023/02/25 05:24:50;;;;;;;0.00;0.00;;;;;;;7.45;62.68;101530.00;7359683;19;20014;-55
2023/02/25 05:27:16;;;;;;;0.10;0.10;;;;;;;7.51;62.77;101539.53;7356792;19;20085;-54
2023/02/25 05:29:41;;;;;;;0.00;0.00;;;;;;;7.48;62.58;101529.97;7357801;19;20022;-55
2023/02/25 05:32:07;;;;;;;0.00;0.00;;;;;;;7.56;62.49;101531.75;7354639;19;20021;-56
2023/02/25 05:34:33;;;;;;;0.00;0.00;;;;;;;7.59;62.77;101531.75;7355241;19;20014;-55
2023/02/25 05:36:58;;;;;;;0.00;0.00;;;;;;;7.56;62.94;101526.56;7356911;19;20025;-54
2023/02/25 05:39:23;;;;;;;0.00;0.00;;;;;;;7.63;62.41;101529.16;7356823;19;20018;-55
2023/02/25 05:41:50;;;;;;;0.00;0.00;;;;;;;7.50;62.77;101497.09;7359331;19;20018;-54
2023/02/25 05:44:16;;;;;;;0.00;0.00;;;;;;;7.66;62.34;101518.78;7357298;19;20018;-55
2023/02/25 05:46:41;;;;;;;0.00;0.00;;;;;;;7.63;62.60;101512.69;7359543;19;20013;-55
2023/02/25 05:49:08;;;;;;;0.00;0.00;;;;;;;7.39;62.35;101467.59;7355516;19;20045;-56
2023/02/25 05:51:33;;;;;;;0.00;0.00;;;;;;;7.72;62.44;101523.13;7359015;19;20014;-55
2023/02/25 05:53:59;;;;;;;0.00;0.00;;;;;;;7.72;62.79;101517.94;7358452;19;20043;-54
2023/02/25 05:56:26;;;;;;;0.00;0.00;;;;;;;7.75;62.81;101517.91;7355976;19;20010;-53
2023/02/25 05:58:52;;;;;;;0.10;0.10;;;;;;;7.76;62.44;101519.69;7358078;19;20011;-55
2023/02/25 06:01:21;;;;;;;0.00;0.00;;;;;;;7.73;62.40;101523.13;7358191;19;21574;-55
2023/02/25 06:03:48;;;;;;;0.00;0.00;;;;;;;7.74;62.55;101529.19;7358001;19;20369;-56
2023/02/25 06:06:16;;;;;;;0.00;0.00;;;;;;;7.73;62.30;101535.25;7357045;19;20030;-55
2023/02/25 06:08:45;;;;;;;0.00;0.00;;;;;;;7.59;62.41;101513.53;7359105;19;20010;-55
2023/02/25 06:11:16;;;;;;;0.00;0.00;;;;;;;7.66;62.69;101528.31;7356958;19;20455;-55
2023/02/25 06:13:42;;;;;;;0.00;0.00;;;;;;;7.68;62.74;101537.84;7358394;19;20010;-55
2023/02/25 06:16:07;;;;;;;0.00;0.00;;;;;;;7.68;62.37;101542.16;7351745;19;21421;-55
2023/02/25 06:18:36;;;;;;;0.00;0.00;;;;;;;7.65;62.52;101534.34;7355263;19;20031;-54
2023/02/25 06:21:07;;;;;;;0.10;0.10;;;;;;;7.58;62.66;101517.03;7352880;19;20022;-55
2023/02/25 06:23:36;;;;;;;0.00;0.00;;;;;;;7.67;62.50;101535.25;7357210;19;20443;-55
2023/02/25 06:26:03;;;;;;;0.00;0.00;;;;;;;7.53;62.69;101517.88;7356980;19;20015;-55
2023/02/25 06:28:29;;;;;;;0.00;0.00;;;;;;;7.62;62.44;101539.56;7351859;19;20036;-55
2023/02/25 06:30:54;;;;;;;0.00;0.00;;;;;;;7.52;62.64;101536.94;7356014;19;20406;-55
2023/02/25 06:33:20;;;;;;;0.00;0.00;;;;;;;7.64;62.86;101553.41;7355441;19;20026;-55
2023/02/25 06:35:52;;;;;;;0.00;0.00;;;;;;;7.49;62.92;101520.44;7356574;19;20026;-56
2023/02/25 06:38:18;;;;;;;0.00;0.00;;;;;;;7.59;62.79;101542.13;7354945;19;20030;-55
2023/02/25 06:40:44;;;;;;;0.00;0.00;;;;;;;7.65;62.70;101552.56;7356173;19;20018;-55
2023/02/25 06:43:10;;;;;;;0.00;0.00;;;;;;;7.59;62.55;101542.13;7357190;19;20017;-55
2023/02/25 06:45:35;;;;;;;0.00;0.00;;;;;;;7.60;62.50;101551.66;7354949;19;20014;-55
2023/02/25 06:48:01;;;;;;;0.00;0.00;;;;;;;7.69;62.80;101569.91;7355692;19;20075;-55
2023/02/25 06:50:26;;;;;;;0.10;0.10;;;;;;;7.69;62.48;101554.31;7354188;19;20029;-55
2023/02/25 06:52:52;;;;;;;0.10;0.10;;;;;;;7.71;62.74;101563.00;7354514;19;20011;-55
2023/02/25 06:55:18;;;;;;;0.00;0.00;;;;;;;7.72;62.58;101565.59;7356058;19;20026;-55
2023/02/25 06:57:43;;;;;;;0.00;0.00;;;;;;;7.72;62.17;101575.13;7345152;19;20023;-56
2023/02/25 07:00:10;;;;;;;0.10;0.10;;;;;;;7.69;62.31;101570.75;7353875;19;20417;-52
2023/02/25 07:02:35;;;;;;;0.00;0.00;;;;;;;7.51;62.38;101543.00;7353377;19;20006;-54
2023/02/25 07:05:01;;;;;;;0.00;0.00;;;;;;;7.81;62.63;101590.75;7354115;19;20010;-56
2023/02/25 07:07:27;;;;;;;0.00;0.00;;;;;;;7.70;62.21;101569.03;7352661;19;20053;-55
2023/02/25 07:09:53;;;;;;;0.00;0.00;;;;;;;7.83;62.63;101585.53;7355791;19;20018;-54
2023/02/25 07:12:18;;;;;;;0.00;0.00;;;;;;;7.85;62.45;101595.06;7349962;19;20367;-55
2023/02/25 07:14:44;;;;;;;0.00;0.00;;;;;;;7.68;62.23;101568.16;7352315;19;20538;-56
2023/02/25 07:17:10;;;;;;;0.00;0.00;;;;;;;7.85;62.17;101587.28;7355043;19;20112;-55
2023/02/25 07:19:35;;;;;;;0.00;0.00;;;;;;;7.57;61.91;101549.06;7351417;19;20070;-54
2023/02/25 07:22:00;;;;;;;0.00;0.00;;;;;;;7.77;61.96;101583.81;7353787;19;20647;-55
2023/02/25 07:24:26;;;;;;;0.00;0.00;;;;;;;7.74;61.97;101583.78;7353567;19;20022;-55
2023/02/25 07:26:52;;;;;;;0.00;0.00;;;;;;;7.87;62.24;101610.69;7349043;19;20011;-55
2023/02/25 07:29:18;;;;;;;0.00;0.00;;;;;;;7.79;62.41;101597.66;7353704;19;20514;-54
2023/02/25 07:31:44;;;;;;;0.00;0.00;;;;;;;7.87;62.14;101616.78;7351585;19;20115;-55
2023/02/25 07:34:10;;;;;;;0.00;0.00;;;;;;;7.87;62.14;101608.97;7355024;19;20014;-56
2023/02/25 07:36:36;;;;;;;0.05;0.05;;;;;;;7.89;62.07;101607.22;7351895;19;20013;-55
2023/02/25 07:39:07;;;;;;;0.00;0.00;;;;;;;7.77;61.66;101586.41;7332624;19;20013;-56
2023/02/25 07:41:34;;;;;;;0.00;0.00;;;;;;;7.90;62.11;101619.34;7359760;19;20470;-56
2023/02/25 07:43:59;;;;;;;0.00;0.00;;;;;;;7.92;62.25;101619.38;7355980;19;20037;-57
2023/02/25 07:46:25;;;;;;;0.00;0.00;;;;;;;7.92;61.87;101617.66;7362618;19;20015;-55
2023/02/25 07:48:50;;;;;;;0.00;0.00;;;;;;;7.85;62.01;101608.06;7358717;19;20441;-55
2023/02/25 07:51:18;;;;;;;0.10;0.10;;;;;;;7.94;62.06;101618.50;7360477;19;20881;-56
2023/02/25 07:53:45;;;;;;;0.00;0.00;;;;;;;7.39;61.69;101535.13;7361437;19;20013;-55
2023/02/25 07:56:11;;;;;;;0.00;0.00;;;;;;;7.88;61.71;101613.31;7360621;19;20011;-55
2023/02/25 07:58:37;;;;;;;0.10;0.10;;;;;;;7.92;61.66;101620.25;7354927;19;20314;-55
2023/02/25 08:01:11;;;;;;;0.00;0.00;;;;;;;7.91;61.67;101613.31;7355912;19;20890;-55
2023/02/25 08:03:37;;;;;;;0.00;0.00;;;;;;;7.90;62.00;101626.28;7356385;19;20309;-54
2023/02/25 08:06:07;;;;;;;0.00;0.00;;;;;;;7.89;62.00;101627.16;7355967;19;20074;-56
2023/02/25 08:08:34;;;;;;;0.10;0.10;;;;;;;7.78;62.09;101611.53;7358611;19;20010;-55
2023/02/25 08:11:08;;;;;;;0.00;0.00;;;;;;;7.91;61.70;101634.13;7353663;19;20023;-57
2023/02/25 08:13:35;;;;;;;0.00;0.00;;;;;;;7.78;61.71;101627.13;7360235;19;20442;-55
2023/02/25 08:16:04;;;;;;;0.00;0.00;;;;;;;7.90;61.49;101641.91;7360417;19;21326;-55
2023/02/25 08:18:29;;;;;;;0.00;0.00;;;;;;;7.92;61.75;101656.66;7356089;19;20002;-54
2023/02/25 08:20:57;;;;;;;0.00;0.00;;;;;;;7.91;61.93;101665.34;7357542;19;20003;-55
2023/02/25 08:23:23;;;;;;;0.00;0.00;;;;;;;7.95;61.92;101661.84;7357155;19;20014;-55
2023/02/25 08:25:54;;;;;;;0.10;0.10;;;;;;;7.82;61.79;101633.22;7360420;19;20902;-55
2023/02/25 08:28:22;;;;;;;0.00;0.00;;;;;;;7.99;61.89;101661.00;7356089;19;20010;-55
2023/02/25 08:30:48;;;;;;;0.00;0.00;;;;;;;7.89;61.67;101637.56;7355709;19;20023;-53
2023/02/25 08:33:14;;;;;;;0.00;0.00;;;;;;;8.04;61.62;101661.88;7353905;19;20013;-55
2023/02/25 08:35:39;;;;;;;0.00;0.00;;;;;;;8.06;61.71;101668.00;7354804;19;20014;-55
2023/02/25 08:38:04;;;;;;;0.00;0.00;;;;;;;8.04;61.66;101664.50;7359363;19;20006;-54
2023/02/25 08:40:30;;;;;;;0.00;0.00;;;;;;;8.09;61.16;101674.06;7354000;19;20037;-55
2023/02/25 08:42:56;;;;;;;0.05;0.05;;;;;;;8.16;61.12;101681.00;7353821;19;20006;-56
2023/02/25 08:45:21;;;;;;;0.10;0.10;;;;;;;8.19;61.12;101681.00;7357987;19;20007;-55
2023/02/25 08:47:47;;;;;;;0.00;0.00;;;;;;;8.24;61.47;101674.09;7357967;19;20010;-56
2023/02/25 08:50:12;;;;;;;0.00;0.00;;;;;;;8.26;60.75;101672.34;7333806;19;20813;-55
2023/02/25 08:52:38;;;;;;;0.00;0.00;;;;;;;8.30;60.55;101682.78;7352952;19;20019;-54
2023/02/25 08:55:04;;;;;;;0.00;0.00;;;;;;;8.37;60.81;101686.31;7348925;19;20033;-54
2023/02/25 08:57:30;;;;;;;0.00;0.00;;;;;;;8.32;60.63;101668.06;7353993;19;20015;-53
2023/02/25 08:59:56;;;;;;;0.00;0.00;;;;;;;8.47;60.77;101677.66;7347976;19;20043;-55
2023/02/25 09:02:23;;;;;;;0.00;0.00;;;;;;;8.56;60.83;101682.84;7343288;19;20010;-55
2023/02/25 09:04:48;;;;;;;0.00;0.00;;;;;;;8.64;60.54;101679.41;7352944;19;20026;-56
2023/02/25 09:07:15;;;;;;;0.00;0.00;;;;;;;8.67;59.95;101672.47;7354562;19;20018;-55
2023/02/25 09:09:41;;;;;;;0.10;0.10;;;;;;;8.75;60.39;101677.66;7358339;19;20018;-56
2023/02/25 09:12:06;;;;;;;0.00;0.00;;;;;;;8.79;59.88;101680.28;7358570;19;20023;-55
2023/02/25 09:14:33;;;;;;;0.00;0.00;;;;;;;8.82;59.48;101685.50;7358532;19;20018;-56
2023/02/25 09:17:01;;;;;;;0.03;0.03;;;;;;;8.88;59.34;101683.75;7352457;19;20047;-56
2023/02/25 09:19:27;;;;;;;0.00;0.00;;;;;;;8.86;59.37;101681.13;7357543;19;20010;-56
2023/02/25 09:21:52;;;;;;;0.05;0.05;;;;;;;8.90;59.74;101688.09;7355151;19;20373;-56
2023/02/25 09:24:18;;;;;;;0.00;0.00;;;;;;;8.81;59.50;101667.25;7357534;19;20367;-55
2023/02/25 09:26:43;;;;;;;0.00;0.00;;;;;;;8.97;59.51;101684.63;7358501;19;20007;-55
2023/02/25 09:29:09;;;;;;;0.00;0.00;;;;;;;8.99;59.32;101677.69;7358251;19;20039;-54
2023/02/25 09:31:36;;;;;;;0.00;0.00;;;;;;;8.99;59.57;101661.19;7352231;19;20501;-54
2023/02/25 09:34:03;;;;;;;0.00;0.00;;;;;;;9.25;59.38;101685.47;7349289;19;20099;-55
2023/02/25 09:36:29;;;;;;;0.00;0.00;;;;;;;9.42;59.42;101693.25;7356362;19;20010;-55
2023/02/25 09:38:56;;;;;;;0.00;0.00;;;;;;;9.56;58.98;101681.03;7359866;19;20007;-56
2023/02/25 09:41:37;;;;;;;0.00;0.00;;;;;;;9.82;59.13;101693.13;7356810;19;20049;-53
2023/02/25 09:44:09;;;;;;;0.00;0.00;;;;;;;9.94;57.79;101703.53;7356883;19;20015;-56
2023/02/25 09:46:40;;;;;;;0.00;0.00;;;;;;;10.01;57.43;101702.63;7357067;19;20109;-56
2023/02/25 09:49:14;;;;;;;0.10;0.10;;;;;;;10.12;57.64;101703.44;7356474;19;20016;-56
2023/02/25 09:51:44;;;;;;;0.00;0.00;;;;;;;10.07;57.34;101673.88;7353906;19;20014;-56
2023/02/25 09:54:09;;;;;;;0.08;0.08;;;;;;;10.32;56.91;101705.13;7353200;19;20014;-55
2023/02/25 09:56:35;;;;;;;0.00;0.00;;;;;;;10.40;56.90;101713.78;7358360;19;20024;-56
2023/02/25 09:59:00;;;;;;;0.05;0.05;;;;;;;10.55;56.12;101705.84;7354273;19;20049;-55
2023/02/25 10:01:41;;;;;;;0.00;0.00;;;;;;;10.73;56.61;101706.59;7355624;19;20006;-54
2023/02/25 10:04:12;;;;;;;0.00;0.00;;;;;;;10.74;55.28;101708.31;7331509;19;20014;-55
2023/02/25 10:06:41;;;;;;;0.00;0.00;;;;;;;10.80;55.17;101710.91;7353971;19;20018;-55
2023/02/25 10:09:44;;;;;;;0.00;0.00;;;;;;;10.86;55.75;101718.69;7353028;19;20025;-55
2023/02/25 10:12:39;;;;;;;0.00;0.00;;;;;;;10.86;55.16;101714.34;7256035;19;2004245;-55
2023/02/25 10:15:31;;;;;;;0.05;0.05;;;;;;;10.90;56.02;101710.84;7245713;19;2004390;-55
2023/02/25 10:18:17;;;;;;;0.00;0.00;;;;;;;11.00;55.93;101708.13;7255916;19;2004416;-55
2023/02/25 10:20:42;;;;;;;0.00;0.00;;;;;;;11.06;54.97;101711.56;7357941;19;20018;-54
2023/02/25 10:23:26;;;;;;;0.00;0.00;;;;;;;11.28;54.95;101712.22;7358912;19;21303;-55
2023/02/25 10:26:02;;;;;;;0.00;0.00;;;;;;;11.50;55.48;101720.72;7355098;19;20014;-55
2023/02/25 10:28:31;;;;;;;0.00;0.00;;;;;;;11.64;54.02;101725.81;7353508;19;20038;-55
2023/02/25 10:31:19;;;;;;;0.00;0.00;;;;;;;11.80;54.73;101726.50;7358219;19;20014;-55
2023/02/25 10:33:49;;;;;;;0.08;0.08;;;;;;;11.87;52.90;101730.84;7354021;19;21224;-56
2023/02/25 10:36:18;;;;;;;0.10;0.10;;;;;;;11.90;52.69;101722.94;7355969;19;20049;-56
2023/02/25 10:38:47;;;;;;;0.00;0.00;;;;;;;11.94;52.20;101729.88;7350837;19;20022;-56
2023/02/25 10:41:13;;;;;;;0.03;0.03;;;;;;;11.99;52.48;101721.97;7348504;19;20065;-57
2023/02/25 10:43:43;;;;;;;0.00;0.00;;;;;;;12.12;52.50;101721.81;7355314;19;20027;-57
2023/02/25 10:46:26;;;;;;;0.00;0.00;;;;;;;12.43;53.98;101726.63;7339764;19;20014;-55
2023/02/25 10:48:57;;;;;;;0.08;0.08;;;;;;;12.67;52.02;101734.16;7352428;19;20364;-56
2023/02/25 10:51:24;;;;;;;0.00;0.00;;;;;;;12.83;50.48;101739.16;7353558;19;20566;-55
2023/02/25 10:53:55;;;;;;;0.00;0.00;;;;;;;13.00;51.19;101742.38;7357123;19;20014;-56
2023/02/25 10:56:22;;;;;;;0.00;0.00;;;;;;;13.00;49.06;101737.13;7355406;19;20021;-56
2023/02/25 10:59:03;;;;;;;0.10;0.10;;;;;;;13.02;51.59;101735.34;7357634;19;20299;-55
2023/02/25 11:01:38;;;;;;;0.00;0.00;;;;;;;13.07;50.54;101733.50;7353389;19;21100;-56
2023/02/25 11:04:08;;;;;;;0.00;0.00;;;;;;;12.96;49.83;101706.59;7356709;19;20027;-55
2023/02/25 11:06:36;;;;;;;0.03;0.03;;;;;;;13.22;49.03;101735.03;7353976;19;20030;-56
2023/02/25 11:09:20;;;;;;;0.03;0.03;;;;;;;13.50;51.01;101738.06;7352313;19;20053;-57
2023/02/25 11:12:00;;;;;;;0.10;0.10;;;;;;;13.70;50.55;101735.94;7354101;19;20043;-56
2023/02/25 11:14:31;;;;;;;0.00;0.00;;;;;;;14.00;50.71;101739.72;7353581;19;20010;-56
2023/02/25 11:17:14;;;;;;;0.00;0.00;;;;;;;14.36;50.15;101736.34;7362593;19;20011;-56
2023/02/25 11:19:44;;;;;;;0.10;0.10;;;;;;;14.59;47.99;101727.97;7359253;19;20106;-56
2023/02/25 11:22:22;;;;;;;0.03;0.03;;;;;;;15.00;48.70;101737.50;7358745;19;20010;-55
2023/02/25 11:25:18;;;;;;;0.00;0.00;;;;;;;15.27;49.64;101728.94;7362234;19;20014;-55
2023/02/25 11:27:52;;;;;;;0.05;0.05;;;;;;;15.37;46.83;101729.56;7255290;19;2004376;-57
2023/02/25 11:30:24;;;;;;;0.00;0.00;;;;;;;15.53;44.87;101735.28;7358254;19;20472;-56
2023/02/25 11:32:54;;;;;;;0.10;0.10;;;;;;;15.65;44.29;101731.47;7359161;19;20097;-56
2023/02/25 11:35:28;;;;;;;0.10;0.10;;;;;;;15.68;45.06;101721.72;7357930;19;20015;-56
2023/02/25 11:37:56;;;;;;;0.00;0.00;;;;;;;15.61;43.55;101730.66;7360537;19;20011;-56
2023/02/25 11:40:26;;;;;;;0.03;0.03;;;;;;;15.59;44.83;101732.47;7359258;19;20011;-56
2023/02/25 11:43:05;;;;;;;0.03;0.03;;;;;;;15.43;45.90;101718.00;7361124;19;20018;-55
2023/02/25 11:46:10;;;;;;;0.00;0.00;;;;;;;15.55;46.64;101742.22;7360237;19;20018;-56